createdAt,value
2022-12-31T00:00:21.355Z,12.33
2022-12-31T00:02:48.249Z,12.33
2022-12-31T00:05:15.174Z,12.33
2022-12-31T00:10:08.383Z,12.37
2022-12-31T00:12:35.177Z,12.37
2022-12-31T00:15:03.726Z,12.36
2022-12-31T00:17:30.582Z,12.36
2022-12-31T00:19:57.448Z,12.38
2022-12-31T00:22:24.316Z,12.40
2022-12-31T00:24:51.159Z,12.39
2022-12-31T00:27:18.037Z,12.40
2022-12-31T00:29:44.793Z,12.40
2022-12-31T00:32:11.622Z,12.39
2022-12-31T00:34:38.467Z,12.38
2022-12-31T00:37:05.308Z,12.38
2022-12-31T00:39:32.030Z,12.40
2022-12-31T00:41:59.045Z,12.40
2022-12-31T00:44:25.857Z,12.42
2022-12-31T00:46:52.666Z,12.41
2022-12-31T00:49:19.634Z,12.42
2022-12-31T00:51:46.774Z,12.41
2022-12-31T00:54:14.874Z,12.39
2022-12-31T00:56:41.732Z,12.39
2022-12-31T00:59:08.545Z,12.40
2022-12-31T01:01:39.472Z,12.41
2022-12-31T01:04:18.054Z,12.42
2022-12-31T01:06:45.685Z,12.42
2022-12-31T01:09:15.227Z,12.42
2022-12-31T01:11:43.014Z,12.41
2022-12-31T01:14:17.035Z,12.39
2022-12-31T01:16:48.330Z,12.41
2022-12-31T01:19:22.530Z,12.44
2022-12-31T01:21:50.968Z,12.45
2022-12-31T01:24:18.611Z,12.43
2022-12-31T01:26:46.911Z,12.44
2022-12-31T01:29:14.662Z,12.45
2022-12-31T01:31:41.787Z,12.42
2022-12-31T01:34:09.185Z,12.40
2022-12-31T01:36:37.987Z,12.38
2022-12-31T01:39:08.414Z,12.37
2022-12-31T01:41:43.099Z,12.33
2022-12-31T01:44:12.808Z,12.32
2022-12-31T01:46:52.166Z,12.29
2022-12-31T01:49:35.959Z,12.27
2022-12-31T01:52:12.067Z,12.28
2022-12-31T01:54:46.900Z,12.27
2022-12-31T01:57:15.855Z,12.25
2022-12-31T01:59:45.271Z,12.23
2022-12-31T02:02:15.670Z,12.22
2022-12-31T02:04:42.933Z,12.23
2022-12-31T02:07:12.163Z,12.22
2022-12-31T02:09:42.165Z,12.20
2022-12-31T02:12:10.556Z,12.08
2022-12-31T02:14:43.973Z,11.96
2022-12-31T02:17:30.137Z,11.85
2022-12-31T02:20:41.743Z,11.78
2022-12-31T02:24:05.484Z,11.72
2022-12-31T02:27:01.216Z,11.68
2022-12-31T02:30:13.321Z,11.65
2022-12-31T02:32:40.002Z,11.62
2022-12-31T02:35:20.543Z,11.59
2022-12-31T02:37:57.058Z,11.55
2022-12-31T02:40:24.090Z,11.57
2022-12-31T02:42:55.237Z,11.58
2022-12-31T02:45:32.392Z,11.58
2022-12-31T02:48:32.214Z,11.60
2022-12-31T02:51:19.684Z,11.62
2022-12-31T02:54:11.565Z,11.63
2022-12-31T02:57:00.705Z,11.60
2022-12-31T03:00:00.801Z,11.55
2022-12-31T03:02:33.577Z,11.53
2022-12-31T03:05:03.696Z,11.50
2022-12-31T03:07:33.116Z,11.49
2022-12-31T03:10:01.308Z,11.47
2022-12-31T03:12:48.333Z,11.46
2022-12-31T03:15:25.050Z,11.45
2022-12-31T03:18:43.646Z,11.43
2022-12-31T03:21:32.464Z,11.41
2022-12-31T03:24:17.731Z,11.40
2022-12-31T03:26:44.550Z,11.39
2022-12-31T03:29:11.322Z,11.41
2022-12-31T03:31:38.189Z,11.41
2022-12-31T03:34:04.926Z,11.42
2022-12-31T03:36:31.731Z,11.44
2022-12-31T03:38:58.508Z,11.45
2022-12-31T03:41:25.307Z,11.45
2022-12-31T03:43:52.056Z,11.45
2022-12-31T03:46:18.824Z,11.44
2022-12-31T03:48:45.551Z,11.43
2022-12-31T03:51:12.325Z,11.44
2022-12-31T03:53:39.087Z,11.44
2022-12-31T03:56:06.171Z,11.45
2022-12-31T03:58:32.934Z,11.45
2022-12-31T04:00:59.774Z,11.46
2022-12-31T04:03:27.385Z,11.47
2022-12-31T04:05:55.938Z,11.48
2022-12-31T04:08:24.333Z,11.50
2022-12-31T04:10:51.213Z,11.49
2022-12-31T04:13:18.032Z,11.50
2022-12-31T04:15:45.261Z,11.51
2022-12-31T04:18:13.251Z,11.52
2022-12-31T04:20:40.095Z,11.52
2022-12-31T04:23:06.854Z,11.52
2022-12-31T04:25:33.651Z,11.52
2022-12-31T04:28:00.440Z,11.51
2022-12-31T04:30:27.237Z,11.52
2022-12-31T04:32:53.979Z,11.53
2022-12-31T04:35:20.845Z,11.53
2022-12-31T04:37:47.581Z,11.50
2022-12-31T04:40:14.390Z,11.49
2022-12-31T04:42:41.872Z,11.49
2022-12-31T04:45:10.239Z,11.49
2022-12-31T04:47:36.975Z,11.49
2022-12-31T04:50:04.685Z,11.50
2022-12-31T04:52:34.542Z,11.52
2022-12-31T04:55:04.230Z,11.52
2022-12-31T04:57:30.940Z,11.50
2022-12-31T04:59:57.712Z,11.48
2022-12-31T05:02:24.609Z,11.47
2022-12-31T05:04:51.471Z,11.48
2022-12-31T05:07:18.299Z,11.47
2022-12-31T05:09:45.054Z,11.47
2022-12-31T05:12:11.770Z,11.48
2022-12-31T05:14:38.496Z,11.48
2022-12-31T05:17:05.307Z,11.51
2022-12-31T05:19:32.128Z,11.56
2022-12-31T05:22:17.394Z,11.60
2022-12-31T05:24:44.166Z,11.62
2022-12-31T05:27:10.957Z,11.64
2022-12-31T05:29:37.681Z,11.65
2022-12-31T05:32:04.600Z,11.61
2022-12-31T05:34:31.322Z,11.59
2022-12-31T05:36:58.105Z,11.61
2022-12-31T05:39:24.915Z,11.61
2022-12-31T05:41:51.633Z,11.62
2022-12-31T05:44:18.409Z,11.61
2022-12-31T05:46:45.407Z,11.62
2022-12-31T05:49:12.329Z,11.64
2022-12-31T05:51:39.066Z,11.65
2022-12-31T05:54:06.045Z,11.67
2022-12-31T05:56:32.796Z,11.69
2022-12-31T05:59:00.693Z,11.72
2022-12-31T06:01:27.596Z,11.79
2022-12-31T06:03:54.452Z,11.88
2022-12-31T06:06:21.331Z,12.00
2022-12-31T06:08:52.202Z,12.10
2022-12-31T06:11:19.004Z,12.16
2022-12-31T06:13:45.761Z,12.16
2022-12-31T06:16:12.879Z,12.18
2022-12-31T06:18:42.378Z,12.24
2022-12-31T06:21:09.461Z,12.34
2022-12-31T06:23:36.325Z,12.43
2022-12-31T06:26:05.046Z,12.52
2022-12-31T06:28:31.798Z,12.58
2022-12-31T06:31:05.160Z,12.66
2022-12-31T06:33:33.556Z,12.84
2022-12-31T06:36:04.690Z,12.93
2022-12-31T06:38:34.923Z,13.07
2022-12-31T06:41:06.105Z,13.16
2022-12-31T06:43:34.065Z,13.19
2022-12-31T06:46:05.443Z,13.25
2022-12-31T06:48:33.023Z,13.36
2022-12-31T06:51:19.046Z,13.41
2022-12-31T06:53:48.079Z,13.48
2022-12-31T06:56:26.527Z,13.74
2022-12-31T06:58:58.287Z,14.02
2022-12-31T07:01:44.516Z,14.38
2022-12-31T07:04:26.207Z,14.66
2022-12-31T07:07:09.097Z,14.84
2022-12-31T07:10:16.495Z,14.97
2022-12-31T07:12:55.735Z,15.09
2022-12-31T07:15:59.241Z,15.08
2022-12-31T07:18:56.657Z,15.10
2022-12-31T07:21:37.607Z,14.77
2022-12-31T07:24:11.812Z,14.41
2022-12-31T07:26:57.030Z,14.23
2022-12-31T07:29:33.123Z,14.12
2022-12-31T07:32:21.173Z,14.05
2022-12-31T07:35:09.044Z,14.16
2022-12-31T07:38:32.570Z,14.28
2022-12-31T07:41:40.018Z,14.54
2022-12-31T07:44:46.489Z,14.72
2022-12-31T07:47:26.643Z,14.82
2022-12-31T07:49:55.182Z,14.91
2022-12-31T07:52:22.739Z,14.83
2022-12-31T07:54:50.003Z,14.69
2022-12-31T07:57:20.402Z,14.70
2022-12-31T08:00:06.441Z,14.72
2022-12-31T08:02:59.840Z,14.70
2022-12-31T08:05:45.605Z,14.61
2022-12-31T08:08:32.737Z,14.47
2022-12-31T08:11:35.398Z,14.36
2022-12-31T08:14:02.834Z,14.30
2022-12-31T08:16:30.634Z,14.28
2022-12-31T08:18:57.815Z,14.28
2022-12-31T08:21:35.172Z,14.25
2022-12-31T08:24:36.241Z,14.26
2022-12-31T08:27:28.585Z,14.25
2022-12-31T08:30:15.240Z,14.24
2022-12-31T08:33:23.516Z,14.25
2022-12-31T08:36:18.270Z,14.38
2022-12-31T08:39:30.272Z,14.47
2022-12-31T08:42:00.302Z,14.62
2022-12-31T08:44:52.137Z,14.71
2022-12-31T08:47:48.709Z,14.75
2022-12-31T08:50:18.836Z,14.85
2022-12-31T08:52:48.033Z,14.94
2022-12-31T08:55:17.279Z,15.02
2022-12-31T08:58:18.556Z,15.05
2022-12-31T09:00:52.989Z,14.86
2022-12-31T09:03:40.648Z,14.66
2022-12-31T09:06:59.778Z,14.48
2022-12-31T09:10:15.151Z,14.44
2022-12-31T09:13:03.231Z,14.46
2022-12-31T09:15:35.702Z,14.61
2022-12-31T09:18:03.314Z,14.78
2022-12-31T09:20:43.048Z,14.81
2022-12-31T09:23:12.317Z,14.88
2022-12-31T09:26:06.943Z,14.95
2022-12-31T09:28:39.576Z,15.00
2022-12-31T09:31:16.573Z,15.06
2022-12-31T09:33:52.632Z,15.07
2022-12-31T09:36:52.744Z,15.07
2022-12-31T09:39:43.923Z,14.85
2022-12-31T09:42:31.964Z,14.58
2022-12-31T09:45:38.564Z,14.31
2022-12-31T09:48:48.076Z,14.14
2022-12-31T09:51:31.036Z,14.05
2022-12-31T09:54:06.719Z,14.02
2022-12-31T09:56:45.761Z,14.03
2022-12-31T09:59:46.302Z,14.03
2022-12-31T10:02:39.345Z,14.09
2022-12-31T10:05:39.844Z,14.14
2022-12-31T10:08:40.454Z,14.21
2022-12-31T10:11:38.735Z,14.31
2022-12-31T10:14:22.468Z,14.37
2022-12-31T10:17:14.564Z,14.34
2022-12-31T10:20:02.160Z,14.35
2022-12-31T10:23:20.291Z,14.35
2022-12-31T10:26:16.127Z,14.32
2022-12-31T10:29:01.168Z,14.30
2022-12-31T10:32:05.219Z,14.31
2022-12-31T10:34:46.277Z,14.32
2022-12-31T10:37:25.596Z,14.35
2022-12-31T10:40:17.183Z,14.35
2022-12-31T10:43:08.432Z,14.37
2022-12-31T10:45:53.207Z,14.44
2022-12-31T10:48:58.564Z,14.55
2022-12-31T10:51:49.807Z,14.66
2022-12-31T10:54:31.434Z,14.83
2022-12-31T10:57:25.781Z,14.93
2022-12-31T11:00:20.041Z,15.02
2022-12-31T11:03:51.017Z,15.08
2022-12-31T11:06:45.101Z,15.12
2022-12-31T11:09:43.077Z,15.21
2022-12-31T11:12:46.903Z,15.28
2022-12-31T11:15:20.925Z,15.42
2022-12-31T11:18:37.319Z,15.49
2022-12-31T11:21:40.931Z,15.53
2022-12-31T11:24:22.085Z,15.59
2022-12-31T11:26:57.804Z,15.68
2022-12-31T11:29:48.564Z,15.70
2022-12-31T11:32:51.199Z,15.71
2022-12-31T11:36:19.712Z,15.80
2022-12-31T11:39:33.986Z,15.85
2022-12-31T11:42:23.693Z,15.92
2022-12-31T11:45:15.077Z,15.96
2022-12-31T11:48:31.245Z,16.00
2022-12-31T11:51:37.138Z,15.98
2022-12-31T11:54:21.773Z,15.72
2022-12-31T11:56:57.514Z,15.65
2022-12-31T11:59:24.395Z,15.63
2022-12-31T12:02:19.040Z,15.54
2022-12-31T12:04:50.244Z,15.42
2022-12-31T12:07:17.819Z,15.38
2022-12-31T12:09:45.888Z,15.29
2022-12-31T12:12:13.115Z,15.28
2022-12-31T12:14:43.324Z,15.28
2022-12-31T12:17:17.982Z,15.24
2022-12-31T12:19:54.483Z,15.16
2022-12-31T12:22:26.068Z,15.06
2022-12-31T12:25:20.822Z,14.96
2022-12-31T12:27:48.431Z,14.84
2022-12-31T12:30:28.665Z,14.71
2022-12-31T12:32:59.691Z,14.60
2022-12-31T12:35:32.029Z,14.53
2022-12-31T12:38:02.774Z,14.51
2022-12-31T12:40:34.143Z,14.45
2022-12-31T12:43:03.601Z,14.43
2022-12-31T12:45:50.853Z,14.41
2022-12-31T12:48:41.931Z,14.38
2022-12-31T12:51:44.504Z,14.36
2022-12-31T12:54:48.380Z,14.39
2022-12-31T12:57:33.015Z,14.41
2022-12-31T13:00:25.059Z,14.42
2022-12-31T13:03:28.412Z,14.49
2022-12-31T13:06:22.285Z,14.57
2022-12-31T13:09:27.043Z,14.72
2022-12-31T13:13:22.030Z,14.88
2022-12-31T13:15:45.050Z,15.04
2022-12-31T13:18:41.241Z,15.14
2022-12-31T13:21:21.300Z,15.24
2022-12-31T13:24:06.217Z,15.27
2022-12-31T13:26:43.841Z,15.30
2022-12-31T13:29:20.859Z,15.35
2022-12-31T13:31:51.458Z,15.42
2022-12-31T13:34:29.166Z,15.50
2022-12-31T13:37:03.209Z,15.57
2022-12-31T13:39:38.849Z,15.57
2022-12-31T13:42:27.103Z,15.59
2022-12-31T13:45:10.645Z,15.62
2022-12-31T13:48:07.169Z,15.73
2022-12-31T13:50:48.180Z,15.83
2022-12-31T13:53:22.634Z,15.90
2022-12-31T13:55:58.331Z,15.95
2022-12-31T13:58:49.946Z,15.97
2022-12-31T14:01:34.063Z,15.96
2022-12-31T14:04:59.281Z,15.96
2022-12-31T14:07:45.347Z,15.94
2022-12-31T14:10:20.701Z,15.95
2022-12-31T14:13:02.831Z,16.00
2022-12-31T14:15:46.057Z,16.09
2022-12-31T14:18:54.020Z,16.11
2022-12-31T14:22:02.724Z,16.08
2022-12-31T14:24:49.775Z,16.10
2022-12-31T14:27:27.202Z,16.12
2022-12-31T14:30:13.393Z,16.15
2022-12-31T14:32:43.122Z,16.12
2022-12-31T14:35:36.169Z,16.11
2022-12-31T14:38:33.796Z,16.10
2022-12-31T14:41:26.481Z,16.07
2022-12-31T14:44:26.979Z,16.06
2022-12-31T14:47:30.713Z,16.03
2022-12-31T14:50:29.671Z,16.02
2022-12-31T14:53:02.386Z,16.01
2022-12-31T14:55:43.345Z,15.98
2022-12-31T14:58:38.840Z,15.97
2022-12-31T15:01:22.312Z,15.93
2022-12-31T15:03:52.019Z,15.89
2022-12-31T15:06:24.775Z,15.88
2022-12-31T15:09:18.696Z,15.88
2022-12-31T15:12:09.679Z,15.90
2022-12-31T15:15:23.022Z,15.91
2022-12-31T15:18:02.692Z,15.95
2022-12-31T15:21:16.961Z,15.95
2022-12-31T15:23:46.169Z,15.92
2022-12-31T15:26:26.037Z,15.89
2022-12-31T15:29:30.148Z,15.93
2022-12-31T15:32:02.396Z,15.94
2022-12-31T15:34:35.793Z,15.92
2022-12-31T15:37:07.042Z,15.91
2022-12-31T15:39:42.776Z,15.89
2022-12-31T15:42:49.156Z,15.86
2022-12-31T15:45:32.046Z,15.86
2022-12-31T15:48:03.283Z,15.92
2022-12-31T15:50:31.308Z,15.92
2022-12-31T15:53:05.246Z,15.94
2022-12-31T15:55:52.079Z,15.90
2022-12-31T15:58:25.868Z,15.84
2022-12-31T16:01:04.359Z,15.78
2022-12-31T16:03:33.346Z,15.74
2022-12-31T16:06:21.217Z,15.70
2022-12-31T16:08:49.750Z,15.63
2022-12-31T16:11:18.650Z,15.63
2022-12-31T16:13:52.630Z,15.64
2022-12-31T16:16:31.828Z,15.66
2022-12-31T16:19:00.545Z,15.68
2022-12-31T16:21:36.312Z,15.67
2022-12-31T16:24:28.053Z,15.65
2022-12-31T16:27:01.141Z,15.67
2022-12-31T16:29:28.498Z,15.66
2022-12-31T16:31:55.431Z,15.61
2022-12-31T16:34:26.872Z,15.58
2022-12-31T16:37:15.495Z,15.55
2022-12-31T16:39:57.233Z,15.50
2022-12-31T16:42:28.799Z,15.47
2022-12-31T16:44:57.567Z,15.45
2022-12-31T16:47:40.817Z,15.40
2022-12-31T16:50:17.784Z,15.35
2022-12-31T16:52:55.859Z,15.32
2022-12-31T16:55:27.496Z,15.30
2022-12-31T16:58:16.861Z,15.34
2022-12-31T17:00:45.069Z,15.35
2022-12-31T17:03:23.693Z,15.33
2022-12-31T17:06:12.782Z,15.33
2022-12-31T17:08:44.132Z,15.31
2022-12-31T17:11:55.961Z,15.29
2022-12-31T17:14:30.072Z,15.29
2022-12-31T17:17:04.103Z,15.33
2022-12-31T17:19:51.769Z,15.30
2022-12-31T17:22:35.720Z,15.24
2022-12-31T17:25:07.570Z,15.21
2022-12-31T17:27:36.847Z,15.19
2022-12-31T17:30:32.860Z,15.18
2022-12-31T17:33:04.043Z,15.18
2022-12-31T17:35:37.397Z,15.18
2022-12-31T17:38:22.323Z,15.21
2022-12-31T17:41:05.786Z,15.23
2022-12-31T17:43:36.856Z,15.21
2022-12-31T17:46:16.048Z,15.19
2022-12-31T17:48:49.795Z,15.17
2022-12-31T17:51:16.611Z,15.18
2022-12-31T17:53:51.361Z,15.17
2022-12-31T17:56:20.475Z,15.13
2022-12-31T17:58:53.466Z,15.10
2022-12-31T18:01:23.825Z,15.06
2022-12-31T18:03:50.747Z,15.09
2022-12-31T18:06:21.495Z,15.08
2022-12-31T18:08:48.392Z,15.04
2022-12-31T18:11:20.124Z,15.05
2022-12-31T18:13:47.677Z,15.07
2022-12-31T18:16:16.425Z,15.08
2022-12-31T18:18:45.244Z,15.08
2022-12-31T18:21:34.733Z,15.08
2022-12-31T18:26:30.573Z,15.06
2022-12-31T18:29:01.198Z,15.02
2022-12-31T18:31:30.855Z,15.02
2022-12-31T18:33:59.220Z,15.02
2022-12-31T18:36:28.969Z,15.00
2022-12-31T18:38:55.926Z,15.01
2022-12-31T18:41:27.672Z,15.00
2022-12-31T18:43:55.360Z,14.97
2022-12-31T18:46:25.064Z,15.00
2022-12-31T18:48:52.058Z,14.96
2022-12-31T18:51:31.377Z,14.94
2022-12-31T18:54:00.971Z,14.91
2022-12-31T18:56:28.566Z,14.85
2022-12-31T18:58:55.667Z,14.80
2022-12-31T19:01:32.556Z,14.76
2022-12-31T19:04:27.887Z,14.76
2022-12-31T19:06:56.478Z,14.80
2022-12-31T19:09:44.527Z,14.77
2022-12-31T19:12:14.274Z,14.80
2022-12-31T19:14:41.114Z,14.81
2022-12-31T19:19:35.005Z,14.82
2022-12-31T19:22:02.625Z,14.81
2022-12-31T19:24:29.633Z,14.81
2022-12-31T19:26:56.472Z,14.81
2022-12-31T19:29:26.742Z,14.83
2022-12-31T19:31:54.620Z,14.83
2022-12-31T19:34:21.849Z,14.83
2022-12-31T19:36:48.626Z,14.89
2022-12-31T19:39:20.140Z,14.90
2022-12-31T19:41:54.660Z,14.92
2022-12-31T19:44:25.396Z,14.90
2022-12-31T19:46:52.279Z,14.86
2022-12-31T19:49:19.291Z,14.86
2022-12-31T19:51:46.042Z,14.88
2022-12-31T19:54:13.780Z,14.91
2022-12-31T19:56:40.708Z,14.93
2022-12-31T19:59:10.179Z,14.91
2022-12-31T20:01:37.365Z,14.91
2022-12-31T20:04:04.750Z,14.92
2022-12-31T20:06:31.822Z,14.94
2022-12-31T20:08:58.757Z,14.95
2022-12-31T20:11:25.833Z,14.97
2022-12-31T20:13:54.003Z,15.00
2022-12-31T20:16:26.853Z,15.02
2022-12-31T20:18:54.941Z,15.08
2022-12-31T20:21:26.934Z,15.13
2022-12-31T20:23:54.384Z,15.16
2022-12-31T20:26:24.331Z,15.17
2022-12-31T20:28:52.065Z,15.22
2022-12-31T20:31:24.813Z,15.28
2022-12-31T20:33:54.120Z,15.34
2022-12-31T20:36:22.021Z,15.31
2022-12-31T20:38:49.954Z,15.29
2022-12-31T20:41:21.337Z,15.29
2022-12-31T20:43:49.499Z,15.34
2022-12-31T20:46:24.441Z,15.34
2022-12-31T20:48:54.234Z,15.35
2022-12-31T20:51:23.003Z,15.42
2022-12-31T20:53:55.955Z,15.45
2022-12-31T20:56:29.154Z,15.48
2022-12-31T20:58:56.519Z,15.49
2022-12-31T21:01:25.507Z,15.48
2022-12-31T21:04:04.898Z,15.52
2022-12-31T21:06:33.800Z,15.52
2022-12-31T21:09:03.924Z,15.56
2022-12-31T21:11:49.634Z,15.58
2022-12-31T21:14:16.648Z,15.59
2022-12-31T21:16:43.645Z,15.58
2022-12-31T21:19:10.514Z,15.61
2022-12-31T21:21:37.799Z,15.58
2022-12-31T21:24:05.119Z,15.60
2022-12-31T21:26:32.515Z,15.61
2022-12-31T21:28:59.368Z,15.67
2022-12-31T21:31:26.569Z,15.66
2022-12-31T21:33:53.458Z,15.69
2022-12-31T21:36:20.210Z,15.68
2022-12-31T21:38:47.029Z,15.72
2022-12-31T21:41:34.155Z,15.72
2022-12-31T21:44:01.882Z,15.77
2022-12-31T21:46:28.956Z,15.81
2022-12-31T21:49:00.173Z,15.82
2022-12-31T21:51:30.083Z,15.81
2022-12-31T21:53:57.275Z,15.83
2022-12-31T21:56:24.704Z,15.82
2022-12-31T21:59:16.891Z,15.88
2022-12-31T22:02:02.801Z,15.86
2022-12-31T22:07:17.386Z,15.82
2022-12-31T22:09:44.168Z,15.80
2022-12-31T22:12:10.953Z,15.82
2022-12-31T22:14:37.729Z,15.77
2022-12-31T22:17:04.549Z,15.79
2022-12-31T22:19:31.347Z,15.77
2022-12-31T22:21:58.124Z,15.77
2022-12-31T22:24:25.045Z,15.80
2022-12-31T22:26:54.163Z,15.84
2022-12-31T22:29:21.555Z,15.85
2022-12-31T22:31:48.331Z,15.81
2022-12-31T22:34:15.482Z,15.78
2022-12-31T22:36:42.329Z,15.80
2022-12-31T22:39:43.847Z,15.80
2022-12-31T22:42:02.882Z,15.78
2022-12-31T22:44:29.706Z,15.80
2022-12-31T22:46:56.587Z,15.76
2022-12-31T22:49:23.481Z,15.76
2022-12-31T22:51:55.826Z,15.76
2022-12-31T22:54:25.701Z,15.78
2022-12-31T22:56:52.719Z,15.78
2022-12-31T22:59:19.609Z,15.80
2022-12-31T23:01:46.744Z,15.78
2022-12-31T23:04:19.046Z,15.81
2022-12-31T23:06:45.866Z,15.83
2022-12-31T23:09:34.677Z,15.82
2022-12-31T23:12:02.881Z,15.81
2022-12-31T23:14:48.075Z,15.84
2022-12-31T23:17:38.267Z,15.88
2022-12-31T23:20:29.551Z,15.86
2022-12-31T23:23:11.692Z,15.92
2022-12-31T23:25:43.338Z,15.95
2022-12-31T23:28:17.260Z,16.00
2022-12-31T23:30:44.582Z,16.03
2022-12-31T23:33:18.832Z,16.02
2022-12-31T23:35:45.776Z,16.06
2022-12-31T23:38:13.315Z,16.06
2022-12-31T23:40:40.188Z,16.08
2022-12-31T23:43:08.939Z,16.07
2022-12-31T23:45:36.983Z,16.09
2022-12-31T23:48:04.264Z,16.11
2022-12-31T23:50:31.208Z,16.11
2022-12-31T23:52:58.024Z,16.12
2022-12-31T23:55:24.811Z,16.23
2022-12-31T23:57:51.622Z,16.22
